Time;durP1;ratioP1;P1;durP2;ratioP2;P2;SDS_P1;SDS_P2;PMS_P1;PMS_P2;Temp;Humidity;BMP_temperature;BMP_pressure;BME280_temperature;BME280_humidity;BME280_pressure;Samples;Min_cycle;Max_cycle;Signal;HPM_P1;HPM_P2
2021/03/28 05:35:29;;;;;;;2.92;1.60;;;;;;;;;;5009426;23;20077;-80
2021/03/28 05:38:14;;;;;;;4.13;3.20;;;;;;;;;;4994747;28;20177;-80
2021/03/28 05:40:49;;;;;;;5.40;2.65;;;;;;;;;;4992619;28;20018;-75
2021/03/28 05:43:27;;;;;;;5.97;3.03;;;;;;;;;;4994442;28;20031;-71
2021/03/28 05:46:06;;;;;;;5.15;2.00;;;;;;;;;;4994170;28;20077;-71
2021/03/28 05:48:31;;;;;;;4.57;2.42;;;;;;;;;;4994177;28;20030;-71
2021/03/28 05:51:19;;;;;;;4.97;2.90;;;;;;;;;;4994115;28;20049;-72
2021/03/28 05:53:48;;;;;;;7.75;3.92;;;;;;;;;;4993986;28;20030;-71
2021/03/28 05:56:33;;;;;;;7.30;4.97;;;;;;;;;;4994176;28;20392;-72
2021/03/28 05:59:10;;;;;;;6.63;4.43;;;;;;;;;;4992860;28;20090;-71
2021/03/28 06:01:50;;;;;;;5.88;3.83;;;;;;;;;;4992435;28;20069;-71
2021/03/28 06:04:34;;;;;;;4.15;3.20;;;;;;;;;;4992403;28;20465;-72
2021/03/28 06:07:09;;;;;;;4.82;3.25;;;;;;;;;;4992949;28;20036;-71
2021/03/28 06:09:54;;;;;;;4.00;2.88;;;;;;;;;;4990391;28;20023;-72
2021/03/28 06:12:39;;;;;;;7.05;4.65;;;;;;;;;;4975543;28;20386;-74
2021/03/28 06:15:11;;;;;;;6.15;3.70;;;;;;;;;;4993383;28;20053;-74
2021/03/28 06:17:51;;;;;;;3.15;2.40;;;;;;;;;;4994167;28;20072;-75
2021/03/28 06:20:20;;;;;;;3.43;2.17;;;;;;;;;;4992322;28;20060;-75
2021/03/28 06:23:05;;;;;;;6.32;3.60;;;;;;;;;;4976454;28;20034;-77
2021/03/28 06:25:31;;;;;;;16.15;5.95;;;;;;;;;;4991568;28;20027;-77
2021/03/28 06:28:16;;;;;;;10.07;4.10;;;;;;;;;;4993767;28;20034;-75
2021/03/28 06:30:51;;;;;;;4.50;2.92;;;;;;;;;;4993130;28;20022;-75
2021/03/28 06:33:36;;;;;;;5.28;2.65;;;;;;;;;;4991841;28;20070;-73
2021/03/28 06:36:25;;;;;;;7.47;3.65;;;;;;;;;;4992657;28;20073;-75
2021/03/28 06:38:55;;;;;;;8.95;3.47;;;;;;;;;;4976543;28;20030;-74
2021/03/28 06:41:33;;;;;;;6.63;3.40;;;;;;;;;;4993958;28;20025;-77
2021/03/28 06:44:22;;;;;;;5.43;2.65;;;;;;;;;;4975313;28;20049;-74
2021/03/28 06:47:07;;;;;;;6.15;3.40;;;;;;;;;;4992802;28;20390;-74
2021/03/28 06:49:33;;;;;;;13.85;6.50;;;;;;;;;;4991116;28;20062;-75
2021/03/28 06:52:14;;;;;;;22.92;13.55;;;;;;;;;;4993351;28;20062;-73
2021/03/28 06:54:40;;;;;;;;;;;;;;;;;;4992394;28;20034;-75
2021/03/28 06:57:28;;;;;;;18.92;11.13;;;;;;;;;;4992965;28;20397;-74
2021/03/28 07:00:00;;;;;;;13.38;5.70;;;;;;;;;;4990489;28;20050;-72
2021/03/28 07:02:40;;;;;;;3.92;2.42;;;;;;;;;;4992018;28;20026;-72
2021/03/28 07:05:25;;;;;;;4.22;1.85;;;;;;;;;;4990588;28;20023;-77
2021/03/28 07:08:03;;;;;;;2.03;1.40;;;;;;;;;;4992228;28;20034;-71
2021/03/28 07:10:32;;;;;;;2.75;1.55;;;;;;;;;;4994064;28;20085;-69
2021/03/28 07:13:04;;;;;;;2.22;1.40;;;;;;;;;;4977487;28;20046;-69
2021/03/28 07:15:30;;;;;;;1.58;1.27;;;;;;;;;;4994550;28;20042;-69
2021/03/28 07:18:08;;;;;;;1.65;1.40;;;;;;;;;;4977220;28;20030;-70
2021/03/28 07:20:52;;;;;;;1.88;1.20;;;;;;;;;;4994854;28;20030;-68
2021/03/28 07:23:47;;;;;;;1.25;1.10;;;;;;;;;;4994355;28;20034;-70
2021/03/28 07:26:16;;;;;;;2.83;2.08;;;;;;;;;;4981756;28;20038;-70
2021/03/28 07:28:57;;;;;;;13.90;6.07;;;;;;;;;;4994622;28;20081;-70
2021/03/28 07:31:42;;;;;;;7.65;4.03;;;;;;;;;;4994699;28;20125;-70
2021/03/28 07:34:10;;;;;;;9.05;4.78;;;;;;;;;;4992539;28;20403;-71
2021/03/28 07:37:02;;;;;;;8.52;4.55;;;;;;;;;;4990186;28;20022;-71
2021/03/28 07:39:43;;;;;;;13.30;7.03;;;;;;;;;;4973540;28;20034;-72
2021/03/28 07:42:09;;;;;;;;;;;;;;;;;;4972167;28;20643;-70
2021/03/28 07:44:54;;;;;;;45.25;18.98;;;;;;;;;;4991181;28;19921;-70
2021/03/28 07:47:20;;;;;;;66.60;28.13;;;;;;;;;;4991945;28;20444;-70
2021/03/28 07:50:05;;;;;;;55.42;25.02;;;;;;;;;;4991721;28;20487;-71
2021/03/28 07:52:36;;;;;;;21.92;10.68;;;;;;;;;;4991180;28;20498;-73
2021/03/28 07:55:20;;;;;;;55.72;22.00;;;;;;;;;;4974691;28;20390;-72
2021/03/28 07:58:04;;;;;;;53.42;21.90;;;;;;;;;;4991671;28;20038;-69
2021/03/28 08:00:42;;;;;;;26.02;12.25;;;;;;;;;;4994175;28;20058;-69
2021/03/28 08:03:26;;;;;;;22.38;11.68;;;;;;;;;;4994058;28;20030;-70
2021/03/28 08:05:52;;;;;;;22.38;11.88;;;;;;;;;;4993824;28;20037;-73
2021/03/28 08:08:37;;;;;;;20.10;11.57;;;;;;;;;;4993803;28;20034;-70
2021/03/28 08:11:22;;;;;;;28.13;14.10;;;;;;;;;;4976443;28;20041;-70
2021/03/28 08:14:01;;;;;;;17.63;9.43;;;;;;;;;;4993818;28;20030;-72
2021/03/28 08:16:27;;;;;;;12.27;7.22;;;;;;;;;;4993678;28;20034;-72
2021/03/28 08:18:56;;;;;;;13.18;6.93;;;;;;;;;;4993737;28;20133;-70
2021/03/28 08:21:27;;;;;;;11.63;6.35;;;;;;;;;;4993703;28;20065;-70
2021/03/28 08:23:53;;;;;;;15.68;8.65;;;;;;;;;;4993657;28;20034;-69
2021/03/28 08:26:40;;;;;;;10.88;6.80;;;;;;;;;;4993670;28;20030;-71
2021/03/28 08:29:12;;;;;;;12.15;6.32;;;;;;;;;;4993560;28;20109;-72
2021/03/28 08:31:56;;;;;;;10.30;6.47;;;;;;;;;;4993132;28;20034;-71
2021/03/28 08:34:40;;;;;;;8.50;5.88;;;;;;;;;;4993298;28;20046;-69
2021/03/28 08:37:06;;;;;;;11.07;7.53;;;;;;;;;;4993575;28;20037;-69
2021/03/28 08:39:35;;;;;;;13.25;9.02;;;;;;;;;;4993507;28;20030;-67
2021/03/28 08:42:04;;;;;;;13.48;9.23;;;;;;;;;;4975761;28;20486;-70
2021/03/28 08:44:30;;;;;;;15.73;10.20;;;;;;;;;;4993449;28;20064;-70
2021/03/28 08:47:04;;;;;;;19.13;9.32;;;;;;;;;;4975833;28;20121;-70
2021/03/28 08:49:41;;;;;;;18.27;11.07;;;;;;;;;;4993313;28;20117;-70
2021/03/28 08:52:10;;;;;;;15.32;9.95;;;;;;;;;;4976036;28;20121;-68
2021/03/28 08:54:56;;;;;;;16.08;9.85;;;;;;;;;;4993349;28;20042;-70
2021/03/28 08:57:36;;;;;;;15.77;9.32;;;;;;;;;;4982933;28;20058;-69
2021/03/28 09:00:05;;;;;;;14.65;9.35;;;;;;;;;;4997119;28;20487;-71
2021/03/28 09:02:49;;;;;;;18.73;9.90;;;;;;;;;;4997227;28;20022;-69
2021/03/28 09:05:18;;;;;;;17.23;10.43;;;;;;;;;;4997218;28;20028;-69
2021/03/28 09:07:54;;;;;;;16.58;10.00;;;;;;;;;;4997195;28;20029;-69
2021/03/28 09:10:35;;;;;;;15.32;10.30;;;;;;;;;;4997273;28;20030;-68
2021/03/28 09:13:10;;;;;;;16.00;9.38;;;;;;;;;;4997190;28;20026;-70
2021/03/28 09:15:51;;;;;;;14.82;9.32;;;;;;;;;;4996918;28;20034;-68
2021/03/28 09:18:34;;;;;;;16.17;9.65;;;;;;;;;;4979581;28;20397;-69
2021/03/28 09:21:18;;;;;;;15.07;8.73;;;;;;;;;;4997036;28;20035;-73
2021/03/28 09:24:20;;;;;;;16.67;10.07;;;;;;;;;;4997072;28;20045;-72
2021/03/28 09:27:04;;;;;;;21.17;12.13;;;;;;;;;;4902273;29;20577;-71
2021/03/28 09:29:42;;;;;;;14.93;10.18;;;;;;;;;;4990683;28;20045;-72
2021/03/28 09:32:14;;;;;;;16.00;9.98;;;;;;;;;;4996825;28;20704;-70
2021/03/28 09:34:46;;;;;;;20.20;12.65;;;;;;;;;;4996319;28;20054;-72
2021/03/28 09:37:15;;;;;;;20.13;12.60;;;;;;;;;;4996746;28;20038;-71
2021/03/28 09:39:57;;;;;;;17.15;9.73;;;;;;;;;;4996761;28;20034;-72
2021/03/28 09:42:36;;;;;;;16.70;8.95;;;;;;;;;;4997110;28;20037;-71
2021/03/28 09:45:20;;;;;;;17.45;9.23;;;;;;;;;;4996677;28;20030;-71
2021/03/28 09:47:54;;;;;;;15.68;8.98;;;;;;;;;;4996449;28;20031;-73
2021/03/28 09:50:39;;;;;;;12.50;8.32;;;;;;;;;;4996615;28;20034;-71
2021/03/28 09:53:08;;;;;;;16.20;8.52;;;;;;;;;;4996699;28;20041;-70
2021/03/28 09:55:53;;;;;;;13.90;7.60;;;;;;;;;;4996275;28;20092;-69
2021/03/28 09:58:37;;;;;;;16.55;8.23;;;;;;;;;;4978473;28;20044;-71
2021/03/28 10:01:22;;;;;;;12.85;6.68;;;;;;;;;;4996352;28;20033;-70
2021/03/28 10:04:01;;;;;;;13.80;7.40;;;;;;;;;;4996316;28;20030;-70
2021/03/28 10:06:27;;;;;;;10.93;6.80;;;;;;;;;;4995847;28;20494;-71
2021/03/28 10:09:18;;;;;;;9.88;6.60;;;;;;;;;;4996147;28;20087;-73
2021/03/28 10:11:48;;;;;;;11.35;6.22;;;;;;;;;;4995986;28;20037;-70
2021/03/28 10:14:32;;;;;;;8.35;5.22;;;;;;;;;;4995881;28;20034;-72
2021/03/28 10:17:04;;;;;;;9.27;4.05;;;;;;;;;;4996121;28;20034;-74
2021/03/28 10:19:36;;;;;;;6.00;3.90;;;;;;;;;;4996010;28;20383;-71
2021/03/28 10:22:11;;;;;;;10.57;3.92;;;;;;;;;;4995900;28;20088;-71
2021/03/28 10:24:43;;;;;;;7.50;4.95;;;;;;;;;;4978246;28;20395;-69
2021/03/28 10:27:27;;;;;;;7.95;4.75;;;;;;;;;;4976609;28;20034;-72
2021/03/28 10:30:03;;;;;;;11.02;5.40;;;;;;;;;;4994649;28;20076;-71
2021/03/28 10:32:49;;;;;;;27.83;9.70;;;;;;;;;;4995332;28;20037;-70
2021/03/28 10:35:53;;;;;;;33.83;13.95;;;;;;;;;;4955763;28;20054;-70
2021/03/28 10:38:19;;;;;;;18.95;7.45;;;;;;;;;;4916579;29;20059;-70
2021/03/28 10:40:57;;;;;;;9.43;5.03;;;;;;;;;;4916722;29;20025;-70
2021/03/28 10:43:38;;;;;;;9.43;4.78;;;;;;;;;;4960217;28;20043;-69
2021/03/28 10:46:13;;;;;;;10.80;4.13;;;;;;;;;;4995465;28;20101;-69
2021/03/28 10:48:54;;;;;;;8.15;3.60;;;;;;;;;;4995436;28;20446;-68
2021/03/28 10:51:20;;;;;;;;;;;;;;;;;;4995401;28;20030;-69
2021/03/28 10:54:05;;;;;;;7.30;4.00;;;;;;;;;;4995157;28;20009;-70
2021/03/28 10:56:48;;;;;;;13.38;5.57;;;;;;;;;;4995388;28;20084;-71
2021/03/28 10:59:33;;;;;;;8.43;4.63;;;;;;;;;;4995260;28;20125;-68
2021/03/28 11:02:15;;;;;;;9.68;5.28;;;;;;;;;;4995182;28;20031;-70
2021/03/28 11:04:54;;;;;;;11.55;5.25;;;;;;;;;;4995164;28;20092;-71
2021/03/28 11:07:22;;;;;;;10.57;5.05;;;;;;;;;;4994963;28;20566;-74
2021/03/28 11:09:57;;;;;;;9.50;4.10;;;;;;;;;;4995153;28;20049;-73
2021/03/28 11:12:32;;;;;;;8.25;4.38;;;;;;;;;;4977513;28;20041;-72
2021/03/28 11:15:04;;;;;;;11.40;4.50;;;;;;;;;;4994965;28;20124;-73
2021/03/28 11:17:36;;;;;;;6.65;4.18;;;;;;;;;;4994938;28;20041;-73
2021/03/28 11:20:21;;;;;;;9.10;4.75;;;;;;;;;;4993814;28;20489;-69
2021/03/28 11:23:05;;;;;;;9.38;4.80;;;;;;;;;;4977259;28;20490;-72
2021/03/28 11:25:54;;;;;;;7.53;4.10;;;;;;;;;;4994727;28;20482;-72
2021/03/28 11:28:38;;;;;;;7.97;3.80;;;;;;;;;;4994356;28;20034;-72
2021/03/28 11:31:07;;;;;;;9.70;4.95;;;;;;;;;;4994602;28;20031;-72
2021/03/28 11:33:53;;;;;;;7.30;4.90;;;;;;;;;;4994076;28;20489;-73
2021/03/28 11:36:21;;;;;;;12.07;4.75;;;;;;;;;;4980748;28;20483;-71
2021/03/28 11:39:05;;;;;;;11.32;4.70;;;;;;;;;;4994288;28;20030;-71
2021/03/28 11:41:40;;;;;;;11.95;4.95;;;;;;;;;;4994377;28;20356;-72
2021/03/28 11:44:32;;;;;;;10.88;4.53;;;;;;;;;;4994207;28;20129;-71
2021/03/28 11:47:04;;;;;;;13.38;5.18;;;;;;;;;;4964490;28;20146;-71
2021/03/28 11:49:32;;;;;;;10.50;4.10;;;;;;;;;;4994140;28;20084;-71
2021/03/28 11:52:17;;;;;;;7.07;3.78;;;;;;;;;;4994395;28;20057;-72
2021/03/28 11:54:59;;;;;;;12.88;6.05;;;;;;;;;;4994152;28;20133;-71
2021/03/28 11:57:32;;;;;;;13.68;6.03;;;;;;;;;;4994226;28;20034;-73
2021/03/28 12:00:11;;;;;;;12.02;5.72;;;;;;;;;;4994024;28;20073;-72
2021/03/28 12:02:37;;;;;;;8.23;5.25;;;;;;;;;;4976506;28;20049;-75
2021/03/28 12:05:06;;;;;;;20.77;16.83;;;;;;;;;;4993963;28;20486;-70
2021/03/28 12:07:35;;;;;;;12.35;7.10;;;;;;;;;;4976694;28;20042;-70
2021/03/28 12:10:03;;;;;;;10.23;5.63;;;;;;;;;;4976353;28;20030;-70
2021/03/28 12:12:38;;;;;;;14.15;6.15;;;;;;;;;;4993447;28;20549;-70
2021/03/28 12:36:18;;;;;;;38.42;11.68;;;;;;;;;;5823044;23;20054;-74
2021/03/28 12:38:49;;;;;;;15.35;6.75;;;;;;;;;;4973479;28;20027;-75
2021/03/28 12:41:31;;;;;;;12.82;5.60;;;;;;;;;;4956522;28;20594;-75
2021/03/28 12:44:07;;;;;;;12.80;6.80;;;;;;;;;;4967284;28;20031;-69
2021/03/28 12:46:51;;;;;;;10.65;5.88;;;;;;;;;;4967468;28;20034;-71
2021/03/28 12:49:20;;;;;;;12.23;7.13;;;;;;;;;;4974111;28;20030;-71
2021/03/28 12:51:49;;;;;;;11.98;5.72;;;;;;;;;;4956691;28;20030;-71
2021/03/28 12:54:20;;;;;;;14.00;8.73;;;;;;;;;;4973826;28;20034;-71
2021/03/28 12:56:48;;;;;;;12.60;6.10;;;;;;;;;;4956593;28;20089;-71
2021/03/28 12:59:33;;;;;;;10.05;5.25;;;;;;;;;;4974062;28;20030;-71
2021/03/28 13:02:21;;;;;;;14.43;7.07;;;;;;;;;;4956611;28;20035;-71
2021/03/28 13:05:13;;;;;;;18.23;7.03;;;;;;;;;;4956466;28;20471;-71
2021/03/28 13:07:45;;;;;;;10.60;5.25;;;;;;;;;;4958456;28;20043;-71
2021/03/28 13:10:17;;;;;;;19.70;12.95;;;;;;;;;;4954507;28;20035;-76
2021/03/28 13:12:44;;;;;;;22.67;11.93;;;;;;;;;;4970421;28;20097;-72
2021/03/28 13:15:21;;;;;;;15.65;7.90;;;;;;;;;;4973559;28;20563;-77
2021/03/28 13:17:50;;;;;;;13.00;6.40;;;;;;;;;;4956356;28;20451;-74
2021/03/28 13:20:33;;;;;;;9.20;6.07;;;;;;;;;;4973617;28;20031;-74
2021/03/28 13:23:14;;;;;;;9.05;4.78;;;;;;;;;;4973426;28;20038;-69
2021/03/28 13:25:40;;;;;;;9.45;5.75;;;;;;;;;;4972040;28;20093;-72
2021/03/28 13:28:12;;;;;;;11.57;7.00;;;;;;;;;;4973556;28;20041;-70
2021/03/28 13:31:09;;;;;;;12.80;5.22;;;;;;;;;;4975645;28;20035;-73
2021/03/28 13:33:37;;;;;;;11.32;5.75;;;;;;;;;;4973236;28;20081;-75
2021/03/28 13:36:21;;;;;;;9.13;5.22;;;;;;;;;;4973095;28;20054;-74
2021/03/28 13:39:17;;;;;;;10.05;4.68;;;;;;;;;;4956324;28;20371;-77
2021/03/28 13:41:46;;;;;;;13.98;5.10;;;;;;;;;;4965232;28;20043;-74
2021/03/28 13:44:18;;;;;;;9.60;5.20;;;;;;;;;;4977353;28;20066;-77
2021/03/28 13:46:53;;;;;;;12.40;7.78;;;;;;;;;;4977340;28;20423;-80
2021/03/28 13:49:27;;;;;;;7.38;4.63;;;;;;;;;;4960156;28;20093;-79
2021/03/28 13:52:05;;;;;;;10.27;5.57;;;;;;;;;;4977193;28;20049;-73
2021/03/28 13:54:31;;;;;;;16.80;10.23;;;;;;;;;;4976929;28;20027;-74
2021/03/28 13:56:58;;;;;;;27.80;18.23;;;;;;;;;;4976982;28;20047;-75
2021/03/28 13:59:28;;;;;;;23.15;13.95;;;;;;;;;;4976824;28;20055;-76
2021/03/28 14:01:56;;;;;;;28.23;17.85;;;;;;;;;;4976902;28;20081;-73
2021/03/28 14:04:34;;;;;;;13.32;5.97;;;;;;;;;;4976795;28;20497;-79
2021/03/28 14:07:03;;;;;;;17.70;9.88;;;;;;;;;;4959415;28;20435;-77
2021/03/28 14:09:31;;;;;;;22.15;14.18;;;;;;;;;;4976836;28;20059;-74
2021/03/28 14:11:59;;;;;;;8.43;4.45;;;;;;;;;;4976818;28;20042;-78
2021/03/28 14:14:31;;;;;;;10.85;4.00;;;;;;;;;;4976515;28;20062;-75
2021/03/28 14:16:58;;;;;;;11.32;9.15;;;;;;;;;;4976502;28;20038;-73
2021/03/28 14:19:27;;;;;;;9.70;4.10;;;;;;;;;;4976561;28;20062;-74
2021/03/28 14:21:53;;;;;;;6.97;4.95;;;;;;;;;;4976355;28;20413;-75
2021/03/28 14:24:22;;;;;;;19.45;8.88;;;;;;;;;;4976355;28;20034;-77
2021/03/28 14:26:51;;;;;;;10.98;5.63;;;;;;;;;;4976693;28;20035;-79
2021/03/28 14:29:30;;;;;;;18.50;10.73;;;;;;;;;;4976653;28;20030;-75
2021/03/28 14:32:03;;;;;;;8.75;4.38;;;;;;;;;;4976202;28;20030;-78
2021/03/28 14:34:35;;;;;;;6.03;3.88;;;;;;;;;;4976392;28;20057;-75
2021/03/28 14:37:20;;;;;;;7.60;3.65;;;;;;;;;;4976070;28;20066;-76
2021/03/28 14:40:05;;;;;;;6.18;3.10;;;;;;;;;;4976294;28;20081;-76
2021/03/28 14:42:31;;;;;;;5.43;3.22;;;;;;;;;;4976122;28;20027;-75
2021/03/28 14:45:03;;;;;;;7.50;3.78;;;;;;;;;;4976060;28;20391;-75
2021/03/28 14:47:48;;;;;;;9.85;3.60;;;;;;;;;;4976272;28;20034;-75
2021/03/28 14:50:18;;;;;;;8.50;3.53;;;;;;;;;;4977037;28;20039;-75
2021/03/28 14:52:53;;;;;;;8.90;3.65;;;;;;;;;;4975618;28;20045;-75
2021/03/28 14:55:22;;;;;;;5.47;3.40;;;;;;;;;;4974991;28;20050;-75
2021/03/28 14:58:01;;;;;;;8.48;3.13;;;;;;;;;;4975863;28;20030;-77
2021/03/28 15:00:36;;;;;;;5.07;3.33;;;;;;;;;;4958471;28;20391;-76
2021/03/28 15:03:08;;;;;;;7.90;3.65;;;;;;;;;;4959826;28;20053;-78
2021/03/28 15:05:34;;;;;;;7.15;4.25;;;;;;;;;;4975817;28;20033;-76
2021/03/28 15:08:12;;;;;;;6.07;3.65;;;;;;;;;;4975487;28;20027;-77
2021/03/28 15:10:38;;;;;;;7.50;3.35;;;;;;;;;;4975854;28;20093;-77
2021/03/28 15:13:04;;;;;;;5.05;3.20;;;;;;;;;;4975741;28;20027;-74
2021/03/28 15:15:32;;;;;;;5.05;3.55;;;;;;;;;;4975353;28;20039;-76
2021/03/28 15:18:07;;;;;;;8.13;3.85;;;;;;;;;;4975502;28;20035;-76
2021/03/28 15:20:33;;;;;;;8.77;3.85;;;;;;;;;;4958068;28;20384;-73
2021/03/28 15:23:17;;;;;;;11.80;4.50;;;;;;;;;;4975454;28;20371;-74
2021/03/28 15:25:46;;;;;;;15.85;6.28;;;;;;;;;;4975410;28;20106;-75
2021/03/28 15:28:18;;;;;;;9.63;4.05;;;;;;;;;;4975354;28;20039;-75
2021/03/28 15:30:45;;;;;;;10.18;4.43;;;;;;;;;;4975360;28;20027;-73
2021/03/28 15:33:17;;;;;;;9.70;4.65;;;;;;;;;;4975190;28;20027;-75
2021/03/28 15:35:50;;;;;;;9.82;4.80;;;;;;;;;;4975201;28;20105;-77
2021/03/28 15:38:34;;;;;;;14.10;5.10;;;;;;;;;;4975419;28;20043;-76
2021/03/28 15:41:19;;;;;;;14.10;5.85;;;;;;;;;;4975377;28;20033;-70
2021/03/28 15:43:45;;;;;;;14.68;5.60;;;;;;;;;;4974870;28;20027;-70
2021/03/28 15:46:14;;;;;;;16.50;6.13;;;;;;;;;;4975118;28;20027;-78
2021/03/28 15:48:58;;;;;;;14.05;4.55;;;;;;;;;;4975189;28;20055;-70
2021/03/28 15:51:29;;;;;;;8.23;4.30;;;;;;;;;;4974847;28;20030;-74
2021/03/28 15:53:55;;;;;;;17.63;10.20;;;;;;;;;;4974650;28;20045;-78
2021/03/28 15:56:44;;;;;;;6.88;4.30;;;;;;;;;;4974675;28;20038;-74
2021/03/28 15:59:12;;;;;;;12.45;5.40;;;;;;;;;;4974652;28;20089;-74
2021/03/28 16:01:50;;;;;;;20.80;8.38;;;;;;;;;;4974305;28;20034;-73
2021/03/28 16:04:31;;;;;;;21.27;8.00;;;;;;;;;;4957239;28;20058;-76
2021/03/28 16:07:12;;;;;;;20.33;7.05;;;;;;;;;;4974569;28;20069;-74
2021/03/28 16:09:41;;;;;;;15.82;7.20;;;;;;;;;;4974912;28;20431;-77
2021/03/28 16:12:21;;;;;;;13.50;6.75;;;;;;;;;;4975058;28;20027;-75
2021/03/28 16:15:16;;;;;;;8.38;6.30;;;;;;;;;;4974390;28;20034;-74
2021/03/28 16:17:57;;;;;;;17.88;11.88;;;;;;;;;;4965904;28;20070;-76
2021/03/28 16:20:26;;;;;;;;;;;;;;;;;;4974904;28;20042;-75
2021/03/28 16:23:03;;;;;;;30.05;13.45;;;;;;;;;;4974661;28;20262;-74
2021/03/28 16:25:48;;;;;;;29.02;13.23;;;;;;;;;;4957434;28;20472;-79
2021/03/28 16:28:19;;;;;;;26.02;12.27;;;;;;;;;;4974247;28;20487;-75
2021/03/28 16:30:53;;;;;;;30.17;14.15;;;;;;;;;;4976567;28;20035;-74
2021/03/28 16:33:38;;;;;;;31.27;14.05;;;;;;;;;;4974214;28;20935;-76
2021/03/28 16:36:18;;;;;;;119.75;43.67;;;;;;;;;;4973497;28;20043;-76
2021/03/28 16:38:54;;;;;;;40.28;17.92;;;;;;;;;;4974200;28;20085;-75
2021/03/28 16:41:35;;;;;;;31.58;18.13;;;;;;;;;;4974228;28;20026;-75
2021/03/28 16:44:01;;;;;;;;;;;;;;;;;;4974644;28;20058;-75
2021/03/28 16:46:30;;;;;;;47.95;26.70;;;;;;;;;;4974292;28;19907;-76
2021/03/28 16:49:04;;;;;;;41.25;18.20;;;;;;;;;;4973983;28;20035;-77
2021/03/28 16:51:32;;;;;;;93.68;33.50;;;;;;;;;;4974051;28;20472;-75
2021/03/28 16:54:15;;;;;;;97.47;31.70;;;;;;;;;;4974220;28;20031;-75
2021/03/28 16:56:43;;;;;;;62.97;21.10;;;;;;;;;;4972886;28;20043;-75
2021/03/28 16:59:24;;;;;;;70.95;23.67;;;;;;;;;;4973573;28;20527;-77
2021/03/28 17:01:51;;;;;;;107.63;30.23;;;;;;;;;;4973031;28;20023;-76
2021/03/28 17:04:22;;;;;;;119.28;33.75;;;;;;;;;;4973028;28;20029;-76
2021/03/28 17:07:02;;;;;;;114.13;33.13;;;;;;;;;;4972938;28;20026;-77
2021/03/28 17:09:31;;;;;;;147.50;48.65;;;;;;;;;;4972813;28;20073;-73
2021/03/28 17:11:57;;;;;;;136.85;46.22;;;;;;;;;;4971179;28;20391;-75
2021/03/28 17:14:31;;;;;;;125.47;43.88;;;;;;;;;;4972827;28;20022;-74
2021/03/28 17:17:26;;;;;;;149.63;53.45;;;;;;;;;;4973955;28;20038;-77
2021/03/28 17:20:11;;;;;;;136.57;42.95;;;;;;;;;;4966258;28;20074;-74
2021/03/28 17:22:51;;;;;;;95.70;31.58;;;;;;;;;;4977568;28;20151;-72
2021/03/28 17:25:29;;;;;;;105.60;37.35;;;;;;;;;;4976414;28;20019;-75
2021/03/28 17:28:04;;;;;;;127.35;47.47;;;;;;;;;;4976947;28;20069;-76
2021/03/28 17:30:59;;;;;;;125.88;42.83;;;;;;;;;;4977127;28;20035;-75
2021/03/28 17:33:44;;;;;;;104.25;37.30;;;;;;;;;;4951827;28;20387;-73
2021/03/28 17:36:16;;;;;;;112.63;41.05;;;;;;;;;;4973100;28;20066;-70
2021/03/28 17:39:00;;;;;;;97.85;36.55;;;;;;;;;;4975768;28;20057;-73
2021/03/28 17:41:45;;;;;;;100.07;37.03;;;;;;;;;;4989250;28;20150;-72
2021/03/28 17:44:23;;;;;;;109.70;38.42;;;;;;;;;;4985322;28;20396;-72
2021/03/28 17:47:00;;;;;;;100.38;35.10;;;;;;;;;;4976263;28;20026;-71
2021/03/28 17:49:39;;;;;;;117.28;40.22;;;;;;;;;;4976650;28;20043;-71
2021/03/28 17:52:16;;;;;;;97.68;35.95;;;;;;;;;;4976473;28;20468;-74
2021/03/28 17:54:43;;;;;;;130.38;41.22;;;;;;;;;;4978317;28;20491;-71
2021/03/28 17:57:21;;;;;;;156.25;47.85;;;;;;;;;;4995827;28;20030;-70
2021/03/28 17:59:48;;;;;;;143.60;45.65;;;;;;;;;;4995774;28;20034;-72
2021/03/28 18:02:25;;;;;;;126.20;41.65;;;;;;;;;;4995961;28;20027;-70
2021/03/28 18:05:03;;;;;;;137.15;44.85;;;;;;;;;;4995506;28;20038;-72
2021/03/28 18:07:31;;;;;;;110.53;37.83;;;;;;;;;;4996229;28;20041;-75
2021/03/28 18:10:03;;;;;;;117.38;39.83;;;;;;;;;;4995969;28;20114;-75
2021/03/28 18:12:30;;;;;;;99.97;36.22;;;;;;;;;;4991125;28;20030;-71
2021/03/28 18:15:17;;;;;;;92.57;32.65;;;;;;;;;;4989071;28;20031;-78
2021/03/28 18:17:44;;;;;;;89.90;33.08;;;;;;;;;;4977436;28;20034;-74
2021/03/28 18:20:12;;;;;;;89.97;34.40;;;;;;;;;;4976087;28;20038;-77
2021/03/28 18:22:39;;;;;;;71.75;28.98;;;;;;;;;;4958694;28;20023;-74
2021/03/28 18:25:06;;;;;;;60.42;24.48;;;;;;;;;;4976005;28;20027;-74
2021/03/28 18:27:37;;;;;;;54.90;24.02;;;;;;;;;;4975800;28;20043;-74
2021/03/28 18:30:10;;;;;;;41.53;19.48;;;;;;;;;;4975956;28;20030;-73
2021/03/28 18:32:44;;;;;;;45.08;19.90;;;;;;;;;;4975934;28;20118;-75
2021/03/28 18:35:16;;;;;;;40.95;19.17;;;;;;;;;;4975926;28;20438;-71
2021/03/28 18:37:45;;;;;;;76.22;29.88;;;;;;;;;;4975383;28;20093;-74
2021/03/28 18:40:16;;;;;;;39.47;17.38;;;;;;;;;;4975513;28;20380;-71
2021/03/28 18:43:00;;;;;;;39.65;18.52;;;;;;;;;;4975769;28;20045;-71
2021/03/28 18:45:41;;;;;;;41.08;16.77;;;;;;;;;;4958037;28;20033;-71
2021/03/28 18:48:25;;;;;;;31.60;15.10;;;;;;;;;;4975862;28;20034;-74
2021/03/28 18:50:53;;;;;;;31.90;14.48;;;;;;;;;;4975808;28;20030;-71
2021/03/28 18:53:23;;;;;;;28.98;12.10;;;;;;;;;;4975592;28;20089;-71
2021/03/28 18:55:49;;;;;;;29.83;13.45;;;;;;;;;;4975307;28;20039;-72
2021/03/28 18:58:27;;;;;;;24.80;12.52;;;;;;;;;;4975385;28;20027;-73
2021/03/28 19:00:54;;;;;;;26.88;11.02;;;;;;;;;;4975981;28;20114;-73
2021/03/28 19:03:22;;;;;;;28.80;12.52;;;;;;;;;;4957954;28;20030;-73
2021/03/28 19:05:56;;;;;;;30.65;13.75;;;;;;;;;;4975648;28;20155;-73
2021/03/28 19:08:31;;;;;;;27.13;12.95;;;;;;;;;;4984602;28;20029;-74
2021/03/28 19:11:18;;;;;;;33.40;14.93;;;;;;;;;;4984119;28;20035;-73
2021/03/28 19:14:01;;;;;;;36.65;15.20;;;;;;;;;;4974652;28;20432;-78
2021/03/28 19:16:48;;;;;;;35.75;16.15;;;;;;;;;;4974446;28;20065;-72
2021/03/28 19:19:24;;;;;;;31.33;14.43;;;;;;;;;;4966879;28;20407;-73
2021/03/28 19:21:54;;;;;;;29.38;13.00;;;;;;;;;;4974346;28;20042;-73
2021/03/28 19:24:25;;;;;;;36.90;15.90;;;;;;;;;;4957982;28;20035;-71
2021/03/28 19:26:51;;;;;;;30.00;13.10;;;;;;;;;;4957370;28;20038;-69
2021/03/28 19:29:41;;;;;;;33.70;13.73;;;;;;;;;;4974421;28;20070;-70
2021/03/28 19:32:25;;;;;;;32.20;13.35;;;;;;;;;;4972771;28;20082;-70
2021/03/28 19:35:00;;;;;;;27.50;11.95;;;;;;;;;;4975072;28;20042;-71
2021/03/28 19:37:27;;;;;;;25.85;12.52;;;;;;;;;;4974416;28;20051;-70
2021/03/28 19:40:07;;;;;;;20.63;10.38;;;;;;;;;;4974187;28;20054;-69
2021/03/28 19:42:33;;;;;;;31.27;14.20;;;;;;;;;;4975014;28;20485;-70
2021/03/28 19:45:14;;;;;;;28.25;13.30;;;;;;;;;;4974910;28;20058;-70
2021/03/28 19:47:45;;;;;;;26.02;11.15;;;;;;;;;;4974893;28;20082;-70
2021/03/28 19:50:18;;;;;;;17.50;9.07;;;;;;;;;;4974769;28;20042;-72
2021/03/28 19:52:45;;;;;;;19.05;8.40;;;;;;;;;;4974730;28;20384;-70
2021/03/28 19:55:11;;;;;;;17.13;8.05;;;;;;;;;;4974489;28;20111;-71
2021/03/28 19:57:39;;;;;;;15.52;8.00;;;;;;;;;;4973195;28;20039;-72
2021/03/28 20:00:10;;;;;;;23.27;10.02;;;;;;;;;;4970952;28;20023;-69
2021/03/28 20:02:52;;;;;;;19.75;9.02;;;;;;;;;;4954719;28;20475;-71
2021/03/28 20:05:56;;;;;;;15.32;8.60;;;;;;;;;;4971312;28;20055;-71
2021/03/28 20:08:25;;;;;;;18.88;9.50;;;;;;;;;;4953690;28;20026;-74
2021/03/28 20:11:13;;;;;;;18.90;9.80;;;;;;;;;;4971276;28;20423;-74
2021/03/28 20:13:48;;;;;;;20.08;9.43;;;;;;;;;;4969534;28;20026;-74
2021/03/28 20:16:16;;;;;;;27.38;12.07;;;;;;;;;;4969172;28;20497;-71
2021/03/28 20:18:43;;;;;;;34.88;14.07;;;;;;;;;;4972411;28;20081;-72
2021/03/28 20:21:24;;;;;;;21.85;10.70;;;;;;;;;;4957059;28;20357;-71
2021/03/28 20:27:18;;;;;;;21.52;9.20;;;;;;;;;;4964567;28;20090;-75
2021/03/28 20:29:44;;;;;;;16.77;8.00;;;;;;;;;;4960877;28;20118;-72
2021/03/28 20:32:30;;;;;;;21.05;9.23;;;;;;;;;;4961896;28;20101;-70
2021/03/28 20:35:01;;;;;;;21.13;9.23;;;;;;;;;;4972935;28;20051;-73
2021/03/28 20:37:29;;;;;;;19.88;8.82;;;;;;;;;;4946971;28;20459;-76
2021/03/28 20:40:02;;;;;;;27.80;10.90;;;;;;;;;;4972411;28;20095;-71
2021/03/28 20:42:34;;;;;;;21.73;9.60;;;;;;;;;;4972265;28;20387;-70
2021/03/28 20:45:04;;;;;;;26.15;11.02;;;;;;;;;;4952178;28;20019;-75
2021/03/28 20:47:34;;;;;;;24.27;11.18;;;;;;;;;;4971842;28;20123;-74
2021/03/28 20:50:02;;;;;;;28.42;12.50;;;;;;;;;;4971017;28;20027;-73
2021/03/28 20:52:36;;;;;;;36.05;12.80;;;;;;;;;;4972835;28;20027;-73
2021/03/28 20:55:55;;;;;;;;;;;;;;;;;;;;;
2021/03/28 20:58:29;;;;;;;57.80;20.27;;;;;;;;;;4954407;28;20039;-73
2021/03/28 21:00:57;;;;;;;30.85;12.57;;;;;;;;;;4954040;28;20380;-72
2021/03/28 21:03:29;;;;;;;;;;;;;;;;;;4971356;28;20030;-69
2021/03/28 21:05:59;;;;;;;20.77;8.05;;;;;;;;;;4955126;28;20373;-75
2021/03/28 21:08:31;;;;;;;24.20;10.63;;;;;;;;;;4955116;28;20085;-75
2021/03/28 21:11:03;;;;;;;22.15;9.75;;;;;;;;;;4954034;28;20066;-71
2021/03/28 21:13:30;;;;;;;25.63;11.55;;;;;;;;;;4955153;28;20373;-71
2021/03/28 21:50:55;;;;;;;168.88;37.15;;;;;;;;;;5530761;23;20500;-72
2021/03/28 21:53:22;;;;;;;169.38;37.05;;;;;;;;;;4965421;28;20046;-71
2021/03/28 21:55:55;;;;;;;182.18;39.28;;;;;;;;;;4971900;28;20137;-72